Terminal Aerodrome Forecast
Issued by NWS Birmingham, AL

Home | Current Version | Previous Version | Text Only | Print | Product List | Glossary On
Versions: 1 2 3 4 5 6 7 8 9 10 11 12 13 14 15 16 17 18 19
000
FTUS44 KBMX 241132
TAFBHM
TAF
KBHM 241132Z 2412/2512 23006KT 6SM SHRA BKN009 OVC014
     FM241500 28005KT P6SM BKN015
     FM241800 32008KT P6SM VCSH BKN035
     FM242100 32008KT P6SM BKN120
     FM250300 35003KT P6SM BKN120=

USA.gov is the U.S. government's official web portal to all federal, state and local government web resources and services.